Terminal Aerodrome Forecast
Issued by NWS

Home | Current Version | Previous Version | Text Only | Print | Product List | Glossary On
Versions: 1 2 3 4 5 6 7 8 9 10 11 12 13 14 15 16 17 18 19 20 21 22 23 24 25 26
825
FTUS42 KGSP 281153
TAFHKY
TAF
KHKY 281153Z 2812/2912 08003KT P6SM FEW050
     FM281600 12005KT P6SM SCT060
     FM282300 13004KT P6SM BKN070
     FM290700 35003KT 5SM BR VCSH SCT020 BKN040 PROB30 2908/2912
      -SHRA OVC020=

USA.gov is the U.S. government's official web portal to all federal, state and local government web resources and services.